createdAt,value
2018-04-20T00:00:23.794Z,14.8
2018-04-20T00:01:25.450Z,13.9
2018-04-20T00:02:27.103Z,16.6
2018-04-20T00:03:28.774Z,16.1
2018-04-20T00:04:30.426Z,12.7
2018-04-20T00:05:32.087Z,13.3
2018-04-20T00:06:33.733Z,14.2
2018-04-20T00:07:35.379Z,12.5
2018-04-20T00:08:37.048Z,13.7
2018-04-20T00:09:38.709Z,16.8
2018-04-20T00:10:40.375Z,20.3
2018-04-20T00:11:42.033Z,14.1
2018-04-20T00:12:43.690Z,15.0
2018-04-20T00:13:45.348Z,14.0
2018-04-20T00:14:46.996Z,13.2
2018-04-20T00:15:48.679Z,17.0
2018-04-20T00:16:50.335Z,14.2
2018-04-20T00:17:51.988Z,14.7
2018-04-20T00:18:53.632Z,12.4
2018-04-20T00:19:55.299Z,15.0
2018-04-20T00:20:56.944Z,14.1
2018-04-20T00:21:58.617Z,13.4
2018-04-20T00:23:00.270Z,13.1
2018-04-20T00:24:01.931Z,13.5
2018-04-20T00:25:03.593Z,12.8
2018-04-20T00:26:05.834Z,19.1
2018-04-20T00:27:07.501Z,17.0
2018-04-20T00:28:09.150Z,13.8
2018-04-20T00:29:10.809Z,16.2
2018-04-20T00:30:12.455Z,16.5
2018-04-20T00:31:14.115Z,15.2
2018-04-20T00:32:15.776Z,16.3
2018-04-20T00:33:17.434Z,15.5
2018-04-20T00:34:19.099Z,14.3
2018-04-20T00:35:20.748Z,16.7
2018-04-20T00:36:22.403Z,15.9
2018-04-20T00:37:24.063Z,16.0
2018-04-20T00:38:25.730Z,14.7
2018-04-20T00:39:27.365Z,16.7
2018-04-20T00:40:29.022Z,18.1
2018-04-20T00:41:30.658Z,13.7
2018-04-20T00:42:32.310Z,13.4
2018-04-20T00:43:33.967Z,15.8
2018-04-20T00:44:35.611Z,15.5
2018-04-20T00:45:37.261Z,17.0
2018-04-20T00:46:38.917Z,12.9
2018-04-20T00:47:40.587Z,14.5
2018-04-20T00:48:42.241Z,13.9
2018-04-20T00:49:43.889Z,16.8
2018-04-20T00:50:45.537Z,15.0
2018-04-20T00:51:47.180Z,15.5
2018-04-20T00:52:48.848Z,15.3
2018-04-20T00:53:50.505Z,17.1
2018-04-20T00:54:52.159Z,13.3
2018-04-20T00:55:53.811Z,15.5
2018-04-20T00:56:55.464Z,15.1
2018-04-20T00:57:57.111Z,17.4
2018-04-20T00:58:58.761Z,14.4
2018-04-20T01:00:00.421Z,19.4
2018-04-20T01:01:02.070Z,16.5
2018-04-20T01:02:03.730Z,16.1
2018-04-20T01:03:05.381Z,15.0
2018-04-20T01:04:07.037Z,17.9
2018-04-20T01:05:08.678Z,16.2
2018-04-20T01:06:10.320Z,16.7
2018-04-20T01:07:11.987Z,17.2
2018-04-20T01:08:13.630Z,17.1
2018-04-20T01:09:15.275Z,14.5
2018-04-20T01:10:16.925Z,21.3
2018-04-20T01:11:18.580Z,14.9
2018-04-20T01:12:20.274Z,16.6
2018-04-20T01:13:21.873Z,16.7
2018-04-20T01:14:23.524Z,18.0
2018-04-20T01:15:25.161Z,17.0
2018-04-20T01:16:26.821Z,18.5
2018-04-20T01:17:28.468Z,14.9
2018-04-20T01:18:30.114Z,15.9
2018-04-20T01:19:31.769Z,15.4
2018-04-20T01:20:33.422Z,16.9
2018-04-20T01:21:35.078Z,14.5
2018-04-20T01:22:36.733Z,18.5
2018-04-20T01:23:38.397Z,15.9
2018-04-20T01:24:40.046Z,17.6
2018-04-20T01:25:41.704Z,18.3
2018-04-20T01:26:43.351Z,15.3
2018-04-20T01:27:44.999Z,19.5
2018-04-20T01:28:46.647Z,16.0
2018-04-20T01:29:48.290Z,16.5
2018-04-20T01:30:49.935Z,15.1
2018-04-20T01:31:51.588Z,17.3
2018-04-20T01:32:53.236Z,19.4
2018-04-20T01:33:54.886Z,18.8
2018-04-20T01:34:56.544Z,19.0
2018-04-20T01:35:58.189Z,16.1
2018-04-20T01:36:59.837Z,19.3
2018-04-20T01:38:01.489Z,19.2
2018-04-20T01:39:03.134Z,17.3
2018-04-20T01:40:04.832Z,15.3
2018-04-20T01:41:06.464Z,18.3
2018-04-20T01:42:08.125Z,18.4
2018-04-20T01:43:09.776Z,19.3
2018-04-20T01:44:11.433Z,15.8
2018-04-20T01:45:13.095Z,19.9
2018-04-20T01:46:14.747Z,17.8
2018-04-20T01:47:16.405Z,18.9
2018-04-20T01:48:18.048Z,17.9
2018-04-20T01:49:19.708Z,18.0
2018-04-20T01:50:21.362Z,21.2
2018-04-20T01:51:23.007Z,19.4
2018-04-20T01:52:24.654Z,16.3
2018-04-20T01:53:26.309Z,18.2
2018-04-20T01:54:27.962Z,18.9
2018-04-20T01:55:29.622Z,17.9
2018-04-20T02:01:22.461Z,17.4
2018-04-20T02:02:24.099Z,21.0
2018-04-20T02:03:25.750Z,21.1
2018-04-20T02:04:27.477Z,18.0
2018-04-20T02:05:29.125Z,20.7
2018-04-20T02:06:30.768Z,18.3
2018-04-20T02:07:32.420Z,18.2
2018-04-20T02:08:34.064Z,21.7
2018-04-20T02:09:35.715Z,24.8
2018-04-20T02:10:37.355Z,17.7
2018-04-20T02:11:38.994Z,19.4
2018-04-20T02:12:40.644Z,18.7
2018-04-20T02:13:42.294Z,20.4
2018-04-20T02:14:43.937Z,18.5
2018-04-20T02:15:45.595Z,23.9
2018-04-20T02:16:47.261Z,19.3
2018-04-20T02:17:48.924Z,20.7
2018-04-20T02:18:50.600Z,20.5
2018-04-20T02:19:52.222Z,19.1
2018-04-20T02:20:53.891Z,16.8
2018-04-20T02:21:55.539Z,16.3
2018-04-20T02:22:57.185Z,15.9
2018-04-20T02:23:58.848Z,24.5
2018-04-20T02:25:00.506Z,20.9
2018-04-20T02:26:02.165Z,18.6
2018-04-20T02:27:03.814Z,20.6
2018-04-20T02:28:05.469Z,19.6
2018-04-20T02:29:07.120Z,16.8
2018-04-20T02:30:08.783Z,19.6
2018-04-20T02:31:10.422Z,21.2
2018-04-20T02:32:12.073Z,19.6
2018-04-20T02:33:13.722Z,21.6
2018-04-20T02:34:15.366Z,19.3
2018-04-20T02:35:17.023Z,17.5
2018-04-20T02:36:18.677Z,20.0
2018-04-20T02:37:20.331Z,21.8
2018-04-20T02:38:21.973Z,17.5
2018-04-20T02:39:23.620Z,18.2
2018-04-20T02:40:25.279Z,21.4
2018-04-20T02:41:26.917Z,20.1
2018-04-20T02:42:28.576Z,23.3
2018-04-20T02:43:30.221Z,19.7
2018-04-20T02:44:31.878Z,21.9
2018-04-20T02:45:33.527Z,23.4
2018-04-20T02:46:35.181Z,20.2
2018-04-20T02:47:36.833Z,21.9
2018-04-20T02:48:38.475Z,22.2
2018-04-20T02:49:40.120Z,20.2
2018-04-20T02:50:41.785Z,21.5
2018-04-20T02:51:43.429Z,22.9
2018-04-20T02:52:45.078Z,21.4
2018-04-20T02:53:46.737Z,21.3
2018-04-20T02:54:48.377Z,20.8
2018-04-20T02:55:50.030Z,22.3
2018-04-20T02:56:51.682Z,21.7
2018-04-20T02:57:53.330Z,20.7
2018-04-20T02:58:54.984Z,27.1
2018-04-20T02:59:56.631Z,17.0
2018-04-20T03:00:58.289Z,22.3
2018-04-20T03:01:59.934Z,17.4
2018-04-20T03:03:01.588Z,16.9
2018-04-20T03:04:03.219Z,18.9
2018-04-20T03:05:04.894Z,18.9
2018-04-20T03:06:06.540Z,17.6
2018-04-20T03:07:08.192Z,17.8
2018-04-20T03:08:09.842Z,19.9
2018-04-20T03:09:11.495Z,19.8
2018-04-20T03:10:13.150Z,16.7
2018-04-20T03:11:14.807Z,22.2
2018-04-20T03:12:16.456Z,19.9
2018-04-20T03:13:18.108Z,23.0
2018-04-20T03:14:19.764Z,20.8
2018-04-20T03:15:21.413Z,21.0
2018-04-20T03:16:23.057Z,20.9
2018-04-20T03:17:24.709Z,20.9
2018-04-20T03:18:26.388Z,22.2
2018-04-20T03:19:28.036Z,23.0
2018-04-20T03:20:29.710Z,20.4
2018-04-20T03:21:31.332Z,19.7
2018-04-20T03:22:32.986Z,19.0
2018-04-20T03:23:34.633Z,22.0
2018-04-20T03:24:36.289Z,21.5
2018-04-20T03:25:37.937Z,21.7
2018-04-20T03:26:39.589Z,18.9
2018-04-20T03:27:41.247Z,28.9
2018-04-20T03:28:42.897Z,25.9
2018-04-20T03:29:44.544Z,27.4
2018-04-20T03:30:46.193Z,26.5
2018-04-20T03:31:47.831Z,26.0
2018-04-20T03:32:49.505Z,27.7
2018-04-20T03:33:51.152Z,28.4
2018-04-20T03:34:52.805Z,22.3
2018-04-20T03:35:54.454Z,24.2
2018-04-20T03:36:56.098Z,24.8
2018-04-20T03:37:57.743Z,27.2
2018-04-20T03:38:59.400Z,18.8
2018-04-20T03:40:01.044Z,21.8
2018-04-20T03:41:02.693Z,23.4
2018-04-20T03:42:04.354Z,25.5
2018-04-20T03:43:06.002Z,23.7
2018-04-20T03:44:07.652Z,18.3
2018-04-20T03:45:09.301Z,21.2
2018-04-20T03:46:10.944Z,18.1
2018-04-20T03:47:12.601Z,20.4
2018-04-20T03:48:14.251Z,24.2
2018-04-20T03:49:15.895Z,21.7
2018-04-20T03:50:17.543Z,19.2
2018-04-20T03:51:19.192Z,24.7
2018-04-20T03:52:20.876Z,20.4
2018-04-20T03:53:22.519Z,21.7
2018-04-20T03:54:24.170Z,19.6
2018-04-20T03:55:25.830Z,18.7
2018-04-20T03:56:27.489Z,20.7
2018-04-20T03:57:29.138Z,24.8
2018-04-20T03:58:30.789Z,21.5
2018-04-20T03:59:32.445Z,19.5
2018-04-20T04:00:34.092Z,20.3
2018-04-20T04:01:35.743Z,23.7
2018-04-20T04:02:37.395Z,20.1
2018-04-20T04:03:39.050Z,19.5
2018-04-20T04:04:40.716Z,21.5
2018-04-20T04:05:42.360Z,21.3
2018-04-20T04:06:44.005Z,20.4
2018-04-20T04:07:45.655Z,22.8
2018-04-20T04:08:47.306Z,19.5
2018-04-20T04:09:48.976Z,19.2
2018-04-20T04:10:50.650Z,21.7
2018-04-20T04:11:52.273Z,24.6
2018-04-20T04:12:53.926Z,21.5
2018-04-20T04:13:55.578Z,24.9
2018-04-20T04:14:57.220Z,22.3
2018-04-20T04:15:58.892Z,27.4
2018-04-20T04:17:00.545Z,22.2
2018-04-20T04:18:02.218Z,21.1
2018-04-20T04:19:03.847Z,23.3
2018-04-20T04:20:05.496Z,25.9
2018-04-20T04:21:07.157Z,23.0
2018-04-20T04:22:08.806Z,27.3
2018-04-20T04:23:10.453Z,22.7
2018-04-20T04:24:12.112Z,21.8
2018-04-20T04:25:13.768Z,22.1
2018-04-20T04:26:15.421Z,22.6
2018-04-20T04:27:17.067Z,25.0
2018-04-20T04:28:18.718Z,22.2
2018-04-20T04:29:20.377Z,22.0
2018-04-20T04:30:22.036Z,23.0
2018-04-20T04:31:23.683Z,25.0
2018-04-20T04:32:25.339Z,27.4
2018-04-20T04:33:26.994Z,23.8
2018-04-20T04:34:28.649Z,24.5
2018-04-20T04:35:30.304Z,26.7
2018-04-20T04:36:31.966Z,23.8
2018-04-20T04:37:33.625Z,23.2
2018-04-20T04:38:35.282Z,25.8
2018-04-20T04:39:36.935Z,26.9
2018-04-20T04:40:38.589Z,25.7
2018-04-20T04:41:40.242Z,26.1
2018-04-20T04:42:41.906Z,25.4
2018-04-20T04:43:43.604Z,30.2
2018-04-20T04:44:45.255Z,25.8
2018-04-20T04:45:46.911Z,24.3
2018-04-20T04:46:48.583Z,28.1
2018-04-20T04:47:50.290Z,25.6
2018-04-20T04:48:51.906Z,18.8
2018-04-20T04:49:53.561Z,22.5
2018-04-20T04:50:55.214Z,24.8
2018-04-20T04:51:56.882Z,23.9
2018-04-20T04:52:58.537Z,22.8
2018-04-20T04:54:00.203Z,21.9
2018-04-20T04:55:01.860Z,20.8
2018-04-20T04:56:03.511Z,23.1
2018-04-20T04:57:05.173Z,20.2
2018-04-20T04:58:06.842Z,18.5
2018-04-20T04:59:08.496Z,22.0
2018-04-20T05:00:10.149Z,24.8
2018-04-20T05:01:11.832Z,19.9
2018-04-20T05:02:13.484Z,21.7
2018-04-20T05:03:15.150Z,23.0
2018-04-20T05:04:16.805Z,21.6
2018-04-20T05:05:18.456Z,23.3
2018-04-20T05:06:20.118Z,22.7
2018-04-20T05:07:21.782Z,19.3
2018-04-20T05:08:23.434Z,22.3
2018-04-20T05:09:25.097Z,23.2
2018-04-20T05:10:26.777Z,23.4
2018-04-20T05:11:28.632Z,20.7
2018-04-20T05:12:30.281Z,22.0
2018-04-20T05:13:31.939Z,21.8
2018-04-20T05:14:33.599Z,26.0
2018-04-20T05:15:35.253Z,23.9
2018-04-20T05:16:36.901Z,25.9
2018-04-20T05:17:38.627Z,25.1
2018-04-20T05:18:40.289Z,29.7
2018-04-20T05:19:41.948Z,23.6
2018-04-20T05:20:43.603Z,26.0
2018-04-20T05:21:45.256Z,19.8
2018-04-20T05:22:46.924Z,23.4
2018-04-20T05:23:48.612Z,21.2
2018-04-20T05:24:50.278Z,20.3
2018-04-20T05:25:51.926Z,21.8
2018-04-20T05:26:53.647Z,20.2
2018-04-20T05:27:55.304Z,20.1
2018-04-20T05:28:56.958Z,21.9
2018-04-20T05:29:58.657Z,19.1
2018-04-20T05:31:00.321Z,18.0
2018-04-20T05:32:01.981Z,19.1
2018-04-20T05:33:03.632Z,24.3
2018-04-20T05:34:05.282Z,18.7
2018-04-20T05:35:06.979Z,17.3
2018-04-20T05:36:08.634Z,16.5
2018-04-20T05:37:10.325Z,17.8
2018-04-20T05:38:11.968Z,21.2
2018-04-20T05:39:13.622Z,20.4
2018-04-20T05:40:15.284Z,17.9
2018-04-20T05:41:16.941Z,18.1
2018-04-20T05:42:18.605Z,19.1
2018-04-20T05:43:20.269Z,18.3
2018-04-20T05:44:21.919Z,18.4
2018-04-20T05:45:23.582Z,19.7
2018-04-20T05:46:25.266Z,19.7
2018-04-20T05:47:26.942Z,21.7
2018-04-20T05:48:28.634Z,17.6
2018-04-20T05:49:30.432Z,17.3
2018-04-20T05:50:32.105Z,23.7
2018-04-20T05:51:33.778Z,15.5
2018-04-20T05:52:35.427Z,15.1
2018-04-20T05:53:37.085Z,15.8
2018-04-20T05:54:38.741Z,15.3
2018-04-20T06:01:07.405Z,12.9
2018-04-20T06:02:09.009Z,19.1
2018-04-20T06:04:00.905Z,17.6
2018-04-20T06:05:02.563Z,16.0
2018-04-20T06:06:54.473Z,16.8
2018-04-20T06:07:56.124Z,15.9
2018-04-20T06:08:57.795Z,18.7
2018-04-20T06:09:59.463Z,16.6
2018-04-20T06:11:01.125Z,18.1
2018-04-20T06:12:02.783Z,12.8
2018-04-20T06:13:04.452Z,13.2
2018-04-20T06:14:06.116Z,12.7
2018-04-20T06:15:07.776Z,16.6
2018-04-20T06:16:09.450Z,17.0
2018-04-20T06:17:11.110Z,13.6
2018-04-20T06:18:12.784Z,17.3
2018-04-20T06:19:14.444Z,17.2
2018-04-20T06:20:16.110Z,17.3
2018-04-20T06:21:17.772Z,15.6
2018-04-20T06:22:19.441Z,16.6
2018-04-20T06:23:21.109Z,14.9
2018-04-20T06:24:22.787Z,15.0
2018-04-20T06:25:24.443Z,13.8
2018-04-20T06:26:26.106Z,17.4
2018-04-20T06:27:27.817Z,15.7
2018-04-20T06:28:29.491Z,15.6
2018-04-20T06:29:31.152Z,15.0
2018-04-20T06:30:32.814Z,15.0
2018-04-20T06:31:34.479Z,14.2
2018-04-20T06:32:36.143Z,16.7
2018-04-20T06:33:37.796Z,12.7
2018-04-20T06:34:39.470Z,11.5
2018-04-20T06:35:41.134Z,14.7
2018-04-20T06:36:42.815Z,10.5
2018-04-20T06:37:44.485Z,12.7
2018-04-20T06:38:46.179Z,14.9
2018-04-20T06:39:47.853Z,14.3
2018-04-20T06:40:49.539Z,16.1
2018-04-20T06:41:51.244Z,18.1
2018-04-20T06:42:52.919Z,14.2
2018-04-20T06:43:54.579Z,15.5
2018-04-20T06:44:56.245Z,13.8
2018-04-20T06:45:57.921Z,16.9
2018-04-20T06:46:59.596Z,15.0
2018-04-20T06:48:01.268Z,13.7
2018-04-20T06:49:02.936Z,13.5
2018-04-20T06:50:04.607Z,15.6
2018-04-20T06:51:06.264Z,14.9
2018-04-20T06:52:07.935Z,16.9
2018-04-20T06:53:09.597Z,16.3
2018-04-20T06:54:11.278Z,14.7
2018-04-20T06:55:12.944Z,14.7
2018-04-20T06:56:14.608Z,18.8
2018-04-20T06:57:16.327Z,16.6
2018-04-20T06:58:17.995Z,20.3
2018-04-20T06:59:19.653Z,17.1
2018-04-20T07:00:21.328Z,17.1
2018-04-20T07:01:22.991Z,19.2
2018-04-20T07:02:24.667Z,20.8
2018-04-20T07:03:26.350Z,21.6
2018-04-20T07:04:28.009Z,18.3
2018-04-20T07:05:29.680Z,25.7
2018-04-20T07:06:31.345Z,14.7
2018-04-20T07:07:33.013Z,18.7
2018-04-20T07:08:34.697Z,17.5
2018-04-20T07:09:36.355Z,14.6
2018-04-20T07:10:38.023Z,13.0
2018-04-20T07:11:39.703Z,13.4
2018-04-20T07:12:41.379Z,15.3
2018-04-20T07:13:43.039Z,12.1
2018-04-20T07:14:44.723Z,13.4
2018-04-20T07:15:46.400Z,18.7
2018-04-20T07:16:48.077Z,14.1
2018-04-20T07:17:49.744Z,12.7
2018-04-20T07:18:51.411Z,13.8
2018-04-20T07:19:53.074Z,17.6
2018-04-20T07:20:54.749Z,17.8
2018-04-20T07:21:56.430Z,13.0
2018-04-20T07:22:58.114Z,13.2
2018-04-20T07:23:59.780Z,12.6
2018-04-20T07:25:01.447Z,15.6
2018-04-20T07:26:03.125Z,14.3
2018-04-20T07:27:04.798Z,14.2
2018-04-20T07:28:06.460Z,16.1
2018-04-20T07:29:08.131Z,19.4
2018-04-20T07:30:09.824Z,14.7
2018-04-20T07:31:11.466Z,15.5
2018-04-20T07:32:13.154Z,15.9
2018-04-20T07:33:14.830Z,11.9
2018-04-20T07:34:16.508Z,15.3
2018-04-20T07:35:18.190Z,16.8
2018-04-20T07:36:19.866Z,12.9
2018-04-20T07:37:21.533Z,12.1
2018-04-20T07:38:23.200Z,13.6
2018-04-20T07:39:24.866Z,14.0
2018-04-20T07:40:26.536Z,14.3
2018-04-20T07:41:28.224Z,18.4
2018-04-20T07:42:29.899Z,14.8
2018-04-20T07:43:31.566Z,12.3
2018-04-20T07:44:33.240Z,16.1
2018-04-20T07:45:34.911Z,13.5
2018-04-20T07:46:36.584Z,16.3
2018-04-20T07:47:38.260Z,19.3
2018-04-20T07:48:39.929Z,15.7
2018-04-20T07:49:41.618Z,14.2
2018-04-20T07:50:43.283Z,15.2
2018-04-20T07:51:45.001Z,19.3
2018-04-20T07:52:46.669Z,16.5
2018-04-20T07:53:48.369Z,9.5
2018-04-20T07:54:50.046Z,14.3
2018-04-20T07:55:51.740Z,12.8
2018-04-20T07:56:53.415Z,15.2
2018-04-20T07:57:55.080Z,12.1
2018-04-20T07:58:56.760Z,19.8
2018-04-20T07:59:58.454Z,23.5
2018-04-20T08:01:00.137Z,13.9
2018-04-20T08:02:01.810Z,16.3
2018-04-20T08:03:03.484Z,15.8
2018-04-20T08:04:05.166Z,11.7
2018-04-20T08:05:06.850Z,16.7
2018-04-20T08:06:08.530Z,20.4
2018-04-20T08:07:10.201Z,12.0
2018-04-20T08:08:11.886Z,10.5
2018-04-20T08:09:13.559Z,11.0
2018-04-20T08:10:15.255Z,12.5
2018-04-20T08:11:16.933Z,10.1
2018-04-20T08:12:18.615Z,11.6
2018-04-20T08:13:20.310Z,14.4
2018-04-20T08:14:21.978Z,17.1
2018-04-20T08:15:23.667Z,12.1
2018-04-20T08:16:25.353Z,11.5
2018-04-20T08:17:27.032Z,15.3
2018-04-20T08:18:28.705Z,10.7
2018-04-20T08:19:30.395Z,13.0
2018-04-20T08:20:32.068Z,10.8
2018-04-20T08:21:33.744Z,12.4
2018-04-20T08:22:35.422Z,10.6
2018-04-20T08:23:37.102Z,12.0
2018-04-20T08:24:38.780Z,8.7
2018-04-20T08:25:40.457Z,11.7
2018-04-20T08:26:42.150Z,13.0
2018-04-20T08:27:43.833Z,14.3
2018-04-20T08:28:45.509Z,10.5
2018-04-20T08:29:47.192Z,9.4
2018-04-20T08:30:48.899Z,11.5
2018-04-20T08:31:50.569Z,9.7
2018-04-20T08:32:52.247Z,10.8
2018-04-20T08:33:53.923Z,11.7
2018-04-20T08:34:55.600Z,9.2
2018-04-20T08:35:57.279Z,8.2
2018-04-20T08:36:58.963Z,10.5
2018-04-20T08:38:00.700Z,9.4
2018-04-20T08:39:02.374Z,10.0
2018-04-20T08:40:04.057Z,13.2
2018-04-20T08:41:05.737Z,12.0
2018-04-20T08:42:07.435Z,10.8
2018-04-20T08:43:09.112Z,11.4
2018-04-20T08:44:10.807Z,10.5
2018-04-20T08:45:12.484Z,11.0
2018-04-20T08:46:14.157Z,10.7
2018-04-20T08:47:15.831Z,12.8
2018-04-20T08:48:17.516Z,9.7
2018-04-20T08:49:19.199Z,9.3
2018-04-20T08:50:20.889Z,10.3
2018-04-20T08:51:22.573Z,9.0
2018-04-20T08:52:24.253Z,8.8
2018-04-20T08:53:25.920Z,11.2
2018-04-20T08:54:27.603Z,6.7
2018-04-20T08:55:29.285Z,9.3
2018-04-20T08:56:30.994Z,11.3
2018-04-20T08:57:32.678Z,11.6
2018-04-20T08:58:34.364Z,11.1
2018-04-20T08:59:36.058Z,18.6
2018-04-20T09:00:37.725Z,11.4
2018-04-20T09:01:39.400Z,7.7
2018-04-20T09:02:41.118Z,10.4
2018-04-20T09:03:42.797Z,11.0
2018-04-20T09:04:44.473Z,10.4
2018-04-20T09:05:46.158Z,7.5
2018-04-20T09:06:47.834Z,6.9
2018-04-20T09:07:49.548Z,7.5
2018-04-20T09:08:51.241Z,10.0
2018-04-20T09:09:52.915Z,6.5
2018-04-20T09:10:54.598Z,9.2
2018-04-20T09:11:56.279Z,9.9
2018-04-20T09:12:57.973Z,7.8
2018-04-20T09:13:59.653Z,10.1
2018-04-20T09:15:01.332Z,8.8
2018-04-20T09:16:03.008Z,7.4
2018-04-20T09:17:04.690Z,8.3
2018-04-20T09:18:06.376Z,5.8
2018-04-20T09:19:08.053Z,6.8
2018-04-20T09:20:09.735Z,8.6
2018-04-20T09:21:11.416Z,10.5
2018-04-20T09:22:13.105Z,9.8
2018-04-20T09:23:14.790Z,8.4
2018-04-20T09:24:16.471Z,9.9
2018-04-20T09:25:18.149Z,8.9
2018-04-20T09:26:19.823Z,6.4
2018-04-20T09:27:21.507Z,7.0
2018-04-20T09:28:23.190Z,8.0
2018-04-20T09:29:24.886Z,8.2
2018-04-20T09:30:26.567Z,4.8
2018-04-20T09:31:28.250Z,8.0
2018-04-20T09:32:29.922Z,5.0
2018-04-20T09:33:31.600Z,8.8
2018-04-20T09:34:33.279Z,6.9
2018-04-20T09:35:34.979Z,6.4
2018-04-20T09:36:36.645Z,6.9
2018-04-20T09:37:38.345Z,7.1
2018-04-20T09:38:40.019Z,6.8
2018-04-20T09:39:41.695Z,4.9
2018-04-20T09:40:43.378Z,6.1
2018-04-20T09:41:45.060Z,5.6
2018-04-20T09:42:46.744Z,5.0
2018-04-20T09:43:48.459Z,8.0
2018-04-20T09:44:50.099Z,6.1
2018-04-20T09:45:51.791Z,8.0
2018-04-20T09:46:53.460Z,4.8
2018-04-20T09:47:55.145Z,5.3
2018-04-20T09:48:56.837Z,5.7
2018-04-20T09:49:58.516Z,4.8
2018-04-20T09:51:00.199Z,4.7
2018-04-20T09:52:01.879Z,5.6
2018-04-20T09:53:03.570Z,7.8
2018-04-20T09:54:05.243Z,4.9
2018-04-20T09:55:06.926Z,5.9
2018-04-20T10:01:56.246Z,6.2
2018-04-20T10:02:57.926Z,6.3
2018-04-20T10:04:49.873Z,5.1
2018-04-20T10:05:51.547Z,6.3
2018-04-20T10:07:43.494Z,6.4
2018-04-20T10:08:45.165Z,5.3
2018-04-20T10:09:46.867Z,5.0
2018-04-20T10:10:48.616Z,5.4
2018-04-20T10:11:50.302Z,7.1
2018-04-20T10:12:52.027Z,6.9
2018-04-20T10:13:53.876Z,3.6
2018-04-20T10:14:55.553Z,7.4
2018-04-20T10:15:57.292Z,6.1
2018-04-20T10:16:59.035Z,5.9
2018-04-20T10:18:00.712Z,8.7
2018-04-20T10:19:02.394Z,5.9
2018-04-20T10:20:04.064Z,7.7
2018-04-20T10:21:05.755Z,4.5
2018-04-20T10:22:07.441Z,6.4
2018-04-20T10:23:09.121Z,8.8
2018-04-20T10:24:10.898Z,4.3
2018-04-20T10:25:12.581Z,6.9
2018-04-20T10:26:14.273Z,7.8
2018-04-20T10:27:15.959Z,5.5
2018-04-20T10:28:17.641Z,5.5
2018-04-20T10:29:19.336Z,4.9
2018-04-20T10:30:21.014Z,5.9
2018-04-20T10:31:22.690Z,5.4
2018-04-20T10:32:24.361Z,5.8
2018-04-20T10:33:26.044Z,5.0
2018-04-20T10:34:27.761Z,7.7
2018-04-20T10:35:29.435Z,4.0
2018-04-20T10:36:31.118Z,7.9
2018-04-20T10:37:32.807Z,6.5
2018-04-20T10:38:34.487Z,4.1
2018-04-20T10:39:36.175Z,4.5
2018-04-20T10:40:37.863Z,4.7
2018-04-20T10:41:39.549Z,5.1
2018-04-20T10:42:41.226Z,4.9
2018-04-20T10:43:42.904Z,5.4
2018-04-20T10:44:44.585Z,6.3
2018-04-20T10:45:46.263Z,6.5
2018-04-20T10:46:47.943Z,5.5
2018-04-20T10:47:49.623Z,5.9
2018-04-20T10:48:51.303Z,5.4
2018-04-20T10:49:52.982Z,4.6
2018-04-20T10:50:54.664Z,4.3
2018-04-20T10:51:56.334Z,6.8
2018-04-20T10:52:58.033Z,4.3
2018-04-20T10:53:59.709Z,6.1
2018-04-20T10:55:01.409Z,5.1
2018-04-20T10:56:03.093Z,4.5
2018-04-20T10:57:04.781Z,5.2
2018-04-20T10:58:06.469Z,5.3
2018-04-20T10:59:08.181Z,4.8
2018-04-20T11:00:09.896Z,4.7
2018-04-20T11:01:11.620Z,5.7
2018-04-20T11:02:13.315Z,8.9
2018-04-20T11:03:15.007Z,7.1
2018-04-20T11:04:16.681Z,5.4
2018-04-20T11:05:18.390Z,3.8
2018-04-20T11:06:20.080Z,7.2
2018-04-20T11:07:21.782Z,5.2
2018-04-20T11:08:23.466Z,4.1
2018-04-20T11:09:25.142Z,5.2
2018-04-20T11:10:26.831Z,7.0
2018-04-20T11:11:28.519Z,4.2
2018-04-20T11:12:30.194Z,3.8
2018-04-20T11:13:31.875Z,6.2
2018-04-20T11:14:33.556Z,6.8
2018-04-20T11:15:35.313Z,5.2
2018-04-20T11:16:36.981Z,5.4
2018-04-20T11:17:38.708Z,4.1
2018-04-20T11:18:40.424Z,5.0
2018-04-20T11:19:42.094Z,5.3
2018-04-20T11:20:43.782Z,6.3
2018-04-20T11:21:45.455Z,7.5
2018-04-20T11:22:47.138Z,7.0
2018-04-20T11:23:48.854Z,6.9
2018-04-20T11:24:51.092Z,5.1
2018-04-20T11:25:52.823Z,3.4
2018-04-20T11:26:54.511Z,4.0
2018-04-20T11:27:56.193Z,4.8
2018-04-20T11:28:57.877Z,4.2
2018-04-20T11:29:59.556Z,5.7
2018-04-20T11:31:01.243Z,7.1
2018-04-20T11:32:03.007Z,6.6
2018-04-20T11:33:04.688Z,6.4
2018-04-20T11:34:06.382Z,4.9
2018-04-20T11:35:08.237Z,5.0
2018-04-20T11:36:10.134Z,4.9
2018-04-20T11:37:12.005Z,5.1
2018-04-20T11:38:13.863Z,5.6
2018-04-20T11:39:15.814Z,7.4
2018-04-20T11:40:17.600Z,5.4
2018-04-20T11:41:19.426Z,8.6
2018-04-20T11:42:21.282Z,5.8
2018-04-20T11:43:22.956Z,5.4
2018-04-20T11:44:24.682Z,5.8
2018-04-20T11:45:26.372Z,5.5
2018-04-20T11:46:28.047Z,6.0
2018-04-20T11:47:55.975Z,10.2
2018-04-20T11:48:57.972Z,6.3
2018-04-20T11:49:59.795Z,6.8
2018-04-20T11:51:01.497Z,4.3
2018-04-20T11:52:03.530Z,5.1
2018-04-20T11:53:05.195Z,6.4
2018-04-20T11:54:06.887Z,4.5
2018-04-20T11:55:08.569Z,5.0
2018-04-20T11:56:10.253Z,6.0
2018-04-20T11:57:11.938Z,6.5
2018-04-20T11:58:13.764Z,5.4
2018-04-20T11:59:15.452Z,4.1
2018-04-20T12:00:17.286Z,7.0
2018-04-20T12:01:19.086Z,13.9
2018-04-20T12:02:20.895Z,7.7
2018-04-20T12:03:22.729Z,5.5
2018-04-20T12:04:24.410Z,4.6
2018-04-20T12:05:26.315Z,5.1
2018-04-20T12:06:28.240Z,4.3
2018-04-20T12:07:29.907Z,6.0
2018-04-20T12:08:31.604Z,7.1
2018-04-20T12:09:33.515Z,7.1
2018-04-20T12:10:35.461Z,5.6
2018-04-20T12:11:37.520Z,5.4
2018-04-20T12:12:39.362Z,3.6
2018-04-20T12:13:41.055Z,5.9
2018-04-20T12:14:42.742Z,5.9
2018-04-20T12:15:44.429Z,4.4
2018-04-20T12:16:46.116Z,5.1
2018-04-20T12:17:47.809Z,4.5
2018-04-20T12:18:49.486Z,6.5
2018-04-20T12:19:51.171Z,5.0
2018-04-20T12:20:52.847Z,5.7
2018-04-20T12:21:54.530Z,6.6
2018-04-20T12:22:56.206Z,5.6
2018-04-20T12:23:57.888Z,4.8
2018-04-20T12:24:59.571Z,5.4
2018-04-20T12:26:01.256Z,3.4
2018-04-20T12:27:02.934Z,7.0
2018-04-20T12:28:04.621Z,4.7
2018-04-20T12:29:06.299Z,4.5
2018-04-20T12:30:07.975Z,7.9
2018-04-20T12:31:09.664Z,6.0
2018-04-20T12:32:11.347Z,6.0
2018-04-20T12:33:13.041Z,4.6
2018-04-20T12:34:14.725Z,5.5
2018-04-20T12:35:16.412Z,6.0
2018-04-20T12:36:18.177Z,6.8
2018-04-20T12:37:19.862Z,5.9
2018-04-20T12:38:21.628Z,5.0
2018-04-20T12:39:23.315Z,5.1
2018-04-20T12:40:24.992Z,8.2
2018-04-20T12:41:26.680Z,5.8
2018-04-20T12:42:28.357Z,7.5
2018-04-20T12:43:30.041Z,3.6
2018-04-20T12:44:31.746Z,5.1
2018-04-20T12:45:33.430Z,8.2
2018-04-20T12:46:35.102Z,5.0
2018-04-20T12:47:36.814Z,4.5
2018-04-20T12:48:38.481Z,7.3
2018-04-20T12:49:40.153Z,7.5
2018-04-20T12:50:41.859Z,9.5
2018-04-20T12:51:43.542Z,6.2
2018-04-20T12:52:45.242Z,6.3
2018-04-20T12:53:46.925Z,4.0
2018-04-20T12:54:48.625Z,5.5
2018-04-20T12:55:50.304Z,7.4
2018-04-20T12:56:52.037Z,5.6
2018-04-20T12:57:53.714Z,6.1
2018-04-20T12:58:55.406Z,7.3
2018-04-20T12:59:57.082Z,6.8
2018-04-20T13:00:58.760Z,6.7
2018-04-20T13:02:00.432Z,6.4
2018-04-20T13:03:02.116Z,4.9
2018-04-20T13:04:03.811Z,5.1
2018-04-20T13:05:05.479Z,4.6
2018-04-20T13:06:07.163Z,4.4
2018-04-20T13:07:08.852Z,5.6
2018-04-20T13:08:10.537Z,6.6
2018-04-20T13:09:12.212Z,4.0
2018-04-20T13:10:13.883Z,6.8
2018-04-20T13:11:15.570Z,7.1
2018-04-20T13:12:17.257Z,4.5
2018-04-20T13:13:18.936Z,4.9
2018-04-20T13:14:20.627Z,5.6
2018-04-20T13:15:22.307Z,5.2
2018-04-20T13:16:23.983Z,6.2
2018-04-20T13:17:25.661Z,6.5
2018-04-20T13:18:27.394Z,6.7
2018-04-20T13:19:29.041Z,5.4
2018-04-20T13:20:30.711Z,4.9
2018-04-20T13:21:32.400Z,5.3
2018-04-20T13:22:34.091Z,5.2
2018-04-20T13:23:35.770Z,7.0
2018-04-20T13:24:37.453Z,4.7
2018-04-20T13:25:39.146Z,6.0
2018-04-20T13:26:40.855Z,4.8
2018-04-20T13:27:42.537Z,4.2
2018-04-20T13:28:44.225Z,5.6
2018-04-20T13:29:45.909Z,7.0
2018-04-20T13:30:47.589Z,7.9
2018-04-20T13:31:49.292Z,6.1
2018-04-20T13:32:50.985Z,5.7
2018-04-20T13:33:52.663Z,8.6
2018-04-20T13:34:54.338Z,5.6
2018-04-20T13:35:56.020Z,6.1
2018-04-20T13:36:57.712Z,4.4
2018-04-20T13:37:59.375Z,7.9
2018-04-20T13:39:01.115Z,7.0
2018-04-20T13:40:02.821Z,5.1
2018-04-20T13:41:04.471Z,6.3
2018-04-20T13:42:06.158Z,7.0
2018-04-20T13:43:07.836Z,3.8
2018-04-20T13:44:09.581Z,3.5
2018-04-20T13:45:11.269Z,6.7
2018-04-20T13:46:12.942Z,6.0
2018-04-20T13:47:14.617Z,8.6
2018-04-20T13:48:16.313Z,5.0
2018-04-20T13:49:17.999Z,5.0
2018-04-20T13:50:19.673Z,6.8
2018-04-20T13:51:21.358Z,4.7
2018-04-20T13:52:23.047Z,6.3
2018-04-20T13:53:24.716Z,6.2
2018-04-20T13:54:26.410Z,5.1
2018-04-20T13:55:28.085Z,8.6
2018-04-20T14:01:22.382Z,5.2
2018-04-20T14:02:24.065Z,5.1
2018-04-20T14:04:15.912Z,8.3
2018-04-20T14:05:17.590Z,7.5
2018-04-20T14:06:19.273Z,6.6
2018-04-20T14:07:20.951Z,6.1
2018-04-20T14:08:22.640Z,6.3
2018-04-20T14:09:24.343Z,7.2
2018-04-20T14:10:26.054Z,7.2
2018-04-20T14:11:27.746Z,6.9
2018-04-20T14:12:29.419Z,18.7
2018-04-20T14:13:31.106Z,10.2
2018-04-20T14:14:32.784Z,8.5
2018-04-20T14:15:34.495Z,4.5
2018-04-20T14:16:36.181Z,5.1